Preview of NWS' New Version of Forecast
This preview is not operational and should not be used for support decisions.

Terminal Aerodrome Forecast (TAF)

Issued by National Weather Service (NWS)

                            
000
FTAK31 PAFC 200537
TAFADL
TAF
PADL 200537Z 2006/2106 03004KT P6SM OVC100
     FM200700 VRB06KT P6SM -SHRA OVC050
     FM201200 VRB03KT P6SM -SHRA OVC025
     FM202100 11007KT P6SM -SHRA OVC050=